Time;durP1;ratioP1;P1;durP2;ratioP2;P2;SDS_P1;SDS_P2;PMS_P1;PMS_P2;Temp;Humidity;BMP_temperature;BMP_pressure;BME280_temperature;BME280_humidity;BME280_pressure;Samples;Min_cycle;Max_cycle;Signal;HPM_P1;HPM_P2
2022/10/28 00:01:04;;;;;;;10.73;5.37;;;15.80;85.90;;;;;;5028788;28;20439;-70
2022/10/28 00:03:30;;;;;;;14.67;5.97;;;15.70;86.60;;;;;;5032579;28;20439;-72
2022/10/28 00:06:10;;;;;;;18.33;5.27;;;15.70;86.80;;;;;;5033162;28;20423;-69
2022/10/28 00:08:36;;;;;;;8.30;4.83;;;15.80;86.90;;;;;;5027895;28;20512;-70
2022/10/28 00:11:07;;;;;;;15.27;5.33;;;15.70;86.60;;;;;;5035260;28;20501;-70
2022/10/28 00:13:32;;;;;;;10.23;5.40;;;15.70;86.60;;;;;;5033556;28;20937;-70
2022/10/28 00:16:11;;;;;;;8.80;5.20;;;15.70;86.80;;;;;;5033204;28;20522;-69
2022/10/28 00:18:37;;;;;;;11.47;5.33;;;15.70;87.00;;;;;;5028390;28;20236;-69
2022/10/28 00:21:05;;;;;;;12.50;5.13;;;15.60;87.30;;;;;;5030393;28;20805;-70
2022/10/28 00:23:31;;;;;;;8.90;4.40;;;15.60;87.40;;;;;;5030129;28;20424;-68
2022/10/28 00:26:16;;;;;;;9.70;5.00;;;15.60;87.40;;;;;;5030451;28;20804;-69
2022/10/28 00:28:48;;;;;;;10.10;5.53;;;15.60;87.40;;;;;;5027502;28;20225;-68
2022/10/28 00:31:16;;;;;;;12.17;5.57;;;15.50;87.60;;;;;;5036153;28;20484;-69
2022/10/28 00:33:42;;;;;;;15.07;5.87;;;15.60;87.70;;;;;;5032098;28;20452;-68
2022/10/28 00:36:15;;;;;;;11.90;5.10;;;15.50;87.70;;;;;;5039685;28;20457;-69
2022/10/28 00:38:42;;;;;;;11.40;5.50;;;15.60;88.00;;;;;;5041717;28;20503;-69
2022/10/28 00:41:08;;;;;;;15.67;6.30;;;15.60;88.00;;;;;;5051570;28;20544;-70
2022/10/28 00:43:46;;;;;;;13.83;5.57;;;15.60;87.80;;;;;;5043563;28;20424;-68
2022/10/28 00:46:41;;;;;;;12.50;5.63;;;15.60;88.00;;;;;;5033287;28;20435;-70
2022/10/28 00:49:25;;;;;;;13.03;5.70;;;15.60;88.10;;;;;;5029886;28;20514;-69
2022/10/28 00:52:00;;;;;;;12.80;5.43;;;15.60;88.10;;;;;;5028294;28;20443;-70
2022/10/28 00:54:26;;;;;;;16.53;6.27;;;15.60;88.00;;;;;;5029636;28;20450;-68
2022/10/28 00:56:55;;;;;;;16.83;6.00;;;15.60;88.10;;;;;;5031613;28;20534;-69
2022/10/28 00:59:35;;;;;;;14.87;6.43;;;15.60;88.10;;;;;;5019808;28;20495;-70
2022/10/28 01:02:01;;;;;;;14.53;6.43;;;15.50;88.40;;;;;;5026498;28;20968;-69
2022/10/28 01:04:27;;;;;;;12.53;6.10;;;15.40;89.20;;;;;;5031309;28;20448;-69
2022/10/28 01:06:54;;;;;;;15.57;5.50;;;15.40;89.50;;;;;;5030995;28;20189;-70
2022/10/28 01:09:20;;;;;;;12.20;6.53;;;15.40;89.60;;;;;;5024157;28;20502;-69
2022/10/28 01:11:56;;;;;;;14.57;6.37;;;15.30;89.60;;;;;;5030717;28;20431;-69
2022/10/28 01:14:34;;;;;;;16.23;6.53;;;15.30;89.90;;;;;;5030830;28;20246;-68
2022/10/28 01:17:06;;;;;;;12.03;5.80;;;15.30;89.90;;;;;;5026996;28;20475;-69
2022/10/28 01:19:58;;;;;;;11.83;5.10;;;15.30;89.90;;;;;;5026113;28;20455;-70
2022/10/28 01:22:31;;;;;;;12.63;6.43;;;15.30;89.70;;;;;;5025497;28;20482;-69
2022/10/28 01:25:19;;;;;;;14.33;6.93;;;15.30;89.50;;;;;;5023442;28;20541;-70
2022/10/28 01:28:05;;;;;;;12.60;5.73;;;15.40;88.90;;;;;;5027718;28;20429;-69
2022/10/28 01:30:41;;;;;;;12.90;6.10;;;15.40;89.20;;;;;;5028620;28;20493;-69
2022/10/28 01:33:27;;;;;;;12.03;6.37;;;15.40;89.60;;;;;;5028811;28;20589;-69
2022/10/28 01:36:13;;;;;;;14.60;6.30;;;15.30;89.70;;;;;;5028839;28;20435;-69
2022/10/28 01:38:55;;;;;;;11.87;6.67;;;15.30;89.60;;;;;;5027856;28;20566;-69
2022/10/28 01:41:39;;;;;;;23.13;6.60;;;15.30;89.60;;;;;;5028940;28;20522;-70
2022/10/28 01:44:24;;;;;;;18.27;7.47;;;15.30;89.70;;;;;;5030801;28;20455;-69
2022/10/28 01:47:05;;;;;;;25.23;7.93;;;15.30;90.00;;;;;;5026041;28;20427;-69
2022/10/28 01:49:38;;;;;;;15.73;6.50;;;15.20;90.20;;;;;;5026677;28;20556;-69
2022/10/28 01:52:08;;;;;;;17.80;7.00;;;15.20;90.20;;;;;;5024837;28;20451;-70
2022/10/28 01:54:37;;;;;;;22.83;7.73;;;15.20;90.20;;;;;;5029334;28;20491;-69
2022/10/28 01:57:04;;;;;;;14.13;6.60;;;15.20;90.20;;;;;;5030285;28;20483;-69
2022/10/28 01:59:30;;;;;;;20.80;7.20;;;15.20;90.30;;;;;;5025392;28;20531;-68
2022/10/28 02:01:56;;;;;;;19.77;6.90;;;15.20;90.20;;;;;;5029611;28;20525;-69
2022/10/28 02:04:22;;;;;;;24.70;7.57;;;15.20;90.30;;;;;;5029798;28;20503;-69
2022/10/28 02:06:52;;;;;;;14.30;6.90;;;15.00;90.40;;;;;;5028771;28;20250;-70
2022/10/28 02:09:23;;;;;;;16.53;7.63;;;15.10;90.50;;;;;;5026444;28;20463;-69
2022/10/28 02:12:06;;;;;;;16.33;6.77;;;15.10;90.70;;;;;;5027666;28;20423;-70
2022/10/28 02:15:08;;;;;;;16.17;6.70;;;15.10;90.40;;;;;;5024382;28;20424;-70
2022/10/28 02:17:46;;;;;;;18.50;7.23;;;15.10;90.50;;;;;;5009349;28;20538;-69
2022/10/28 02:20:43;;;;;;;20.53;7.73;;;15.10;90.50;;;;;;5022699;28;20539;-69
2022/10/28 02:23:36;;;;;;;16.37;6.60;;;15.00;90.50;;;;;;5028224;28;20420;-69
2022/10/28 02:26:29;;;;;;;13.63;6.67;;;15.00;90.90;;;;;;5029455;28;20510;-68
2022/10/28 02:29:04;;;;;;;14.17;6.80;;;14.80;91.10;;;;;;5029497;28;21805;-68
2022/10/28 02:31:42;;;;;;;22.93;6.80;;;14.90;91.20;;;;;;5030279;28;20956;-71
2022/10/28 02:34:17;;;;;;;13.57;6.30;;;14.90;91.00;;;;;;5029467;28;20420;-70
2022/10/28 02:36:47;;;;;;;15.63;6.20;;;14.90;91.10;;;;;;5027745;28;20452;-70
2022/10/28 02:39:15;;;;;;;20.13;8.33;;;14.80;91.10;;;;;;5019644;28;20531;-69
2022/10/28 02:41:50;;;;;;;18.23;8.10;;;14.80;91.20;;;;;;5029365;28;20443;-69
2022/10/28 02:44:22;;;;;;;17.00;7.03;;;14.80;91.40;;;;;;5029833;28;20783;-69
2022/10/28 02:46:50;;;;;;;13.63;7.10;;;14.80;91.30;;;;;;5029486;28;20916;-70
2022/10/28 02:49:16;;;;;;;9.47;4.87;;;14.80;91.30;;;;;;5024350;28;20458;-69
2022/10/28 02:51:52;;;;;;;12.37;6.40;;;14.80;91.30;;;;;;5029079;28;20423;-68
2022/10/28 02:54:28;;;;;;;12.07;5.83;;;14.80;91.20;;;;;;5030002;28;20196;-69
2022/10/28 02:57:02;;;;;;;16.23;6.40;;;14.80;91.40;;;;;;5028245;28;20424;-70
2022/10/28 02:59:28;;;;;;;11.43;6.20;;;14.70;91.50;;;;;;5022745;28;20456;-70
2022/10/28 03:01:54;;;;;;;8.67;5.10;;;14.70;91.40;;;;;;5027448;28;20440;-70
2022/10/28 03:04:20;;;;;;;15.53;6.10;;;14.70;91.50;;;;;;5027337;28;20830;-69
2022/10/28 03:06:45;;;;;;;12.80;5.80;;;14.80;91.50;;;;;;5025999;28;20256;-68
2022/10/28 03:09:11;;;;;;;9.97;5.37;;;14.90;91.40;;;;;;5023971;28;20282;-68
2022/10/28 03:11:36;;;;;;;12.70;6.10;;;14.90;91.40;;;;;;5029692;28;20186;-68
2022/10/28 03:14:02;;;;;;;9.80;5.70;;;14.80;91.20;;;;;;5025790;28;20191;-69
2022/10/28 03:16:27;;;;;;;11.30;6.07;;;14.80;91.50;;;;;;5025479;28;20188;-69
2022/10/28 03:18:53;;;;;;;13.10;5.40;;;14.90;91.60;;;;;;5026467;28;20596;-70
2022/10/28 03:21:19;;;;;;;13.73;5.40;;;14.90;91.50;;;;;;5023530;28;20327;-71
2022/10/28 03:23:44;;;;;;;9.33;5.43;;;15.00;91.30;;;;;;5027913;28;20537;-69
2022/10/28 03:26:10;;;;;;;9.37;4.77;;;14.90;91.20;;;;;;5030569;28;20188;-67
2022/10/28 03:28:35;;;;;;;11.40;5.47;;;14.90;91.30;;;;;;5024333;28;20183;-69
2022/10/28 03:31:01;;;;;;;14.03;6.03;;;14.90;91.30;;;;;;5030214;28;20180;-69
2022/10/28 03:33:27;;;;;;;14.53;6.10;;;15.00;91.30;;;;;;5029864;28;20252;-70
2022/10/28 03:35:52;;;;;;;18.47;5.40;;;15.00;91.20;;;;;;5031459;28;20192;-69
2022/10/28 03:38:18;;;;;;;16.20;6.67;;;15.00;91.20;;;;;;5027895;28;20212;-69
2022/10/28 03:40:47;;;;;;;18.90;7.57;;;15.00;91.30;;;;;;5022577;28;20189;-70
2022/10/28 03:43:12;;;;;;;21.40;7.13;;;14.90;91.20;;;;;;5028757;28;20203;-70
2022/10/28 03:45:38;;;;;;;12.63;6.33;;;14.90;91.30;;;;;;5030170;28;20417;-68
2022/10/28 03:48:04;;;;;;;11.47;5.80;;;14.90;91.40;;;;;;5033645;28;20197;-70
2022/10/28 03:50:29;;;;;;;17.37;6.90;;;15.00;91.30;;;;;;5029448;28;20224;-71
2022/10/28 03:52:55;;;;;;;14.07;6.33;;;15.00;91.10;;;;;;5030324;28;20202;-70
2022/10/28 03:55:22;;;;;;;15.03;6.90;;;14.90;91.10;;;;;;5035093;28;20192;-69
2022/10/28 03:57:48;;;;;;;15.93;6.60;;;15.00;91.10;;;;;;5039014;28;20220;-69
2022/10/28 04:00:14;;;;;;;16.17;6.17;;;15.00;91.10;;;;;;5035138;28;20469;-69
2022/10/28 04:02:39;;;;;;;17.43;7.30;;;14.90;91.20;;;;;;5028681;28;20186;-69
2022/10/28 04:05:05;;;;;;;15.37;6.77;;;14.90;91.30;;;;;;5024106;28;20988;-70
2022/10/28 04:07:31;;;;;;;21.00;7.40;;;14.80;91.30;;;;;;5029133;28;20235;-68
2022/10/28 04:09:56;;;;;;;14.53;6.63;;;14.90;91.40;;;;;;5020029;28;20563;-70
2022/10/28 04:12:22;;;;;;;10.47;7.10;;;14.90;91.20;;;;;;5028917;28;20193;-69
2022/10/28 04:14:48;;;;;;;12.73;6.30;;;14.80;91.20;;;;;;5023587;28;20193;-69
2022/10/28 04:17:13;;;;;;;13.77;6.73;;;14.90;91.10;;;;;;5028460;28;20262;-69
2022/10/28 04:19:39;;;;;;;11.03;7.07;;;15.00;90.70;;;;;;5024833;28;20238;-69
2022/10/28 04:22:04;;;;;;;13.53;6.63;;;14.90;90.70;;;;;;5028329;28;20196;-70
2022/10/28 04:24:30;;;;;;;12.27;7.73;;;14.90;90.70;;;;;;5028632;28;20201;-71
2022/10/28 04:26:55;;;;;;;13.43;6.80;;;14.70;90.80;;;;;;5029023;28;20186;-69
2022/10/28 04:29:21;;;;;;;21.40;6.60;;;14.60;91.10;;;;;;5026401;28;20583;-70
2022/10/28 04:31:46;;;;;;;14.53;7.23;;;14.70;91.10;;;;;;5026913;28;20243;-69
2022/10/28 04:34:12;;;;;;;14.57;6.60;;;14.80;91.00;;;;;;5027540;28;20190;-70
2022/10/28 04:36:37;;;;;;;15.87;7.23;;;14.80;91.00;;;;;;5028815;28;20189;-69
2022/10/28 04:39:03;;;;;;;11.60;5.70;;;14.80;90.90;;;;;;5026435;28;20683;-68
2022/10/28 04:41:29;;;;;;;24.23;7.43;;;14.70;91.10;;;;;;5031119;28;20255;-71
2022/10/28 04:43:55;;;;;;;13.00;6.53;;;14.70;91.20;;;;;;5028503;28;20190;-69
2022/10/28 04:46:20;;;;;;;13.63;6.50;;;14.70;91.30;;;;;;5032195;28;20946;-68
2022/10/28 04:48:46;;;;;;;16.70;6.90;;;14.80;91.40;;;;;;5028700;28;20643;-68
2022/10/28 04:51:12;;;;;;;11.73;6.73;;;14.80;91.30;;;;;;5027232;28;20234;-68
2022/10/28 04:53:38;;;;;;;17.90;6.57;;;14.90;91.30;;;;;;5031667;28;20481;-69
2022/10/28 04:56:04;;;;;;;16.70;7.33;;;15.00;91.20;;;;;;5032304;28;20603;-70
2022/10/28 04:58:29;;;;;;;11.03;6.30;;;15.00;91.10;;;;;;5030443;28;20629;-69
2022/10/28 05:00:55;;;;;;;19.30;7.10;;;15.00;91.10;;;;;;5020519;28;20193;-69
2022/10/28 05:03:20;;;;;;;16.53;6.97;;;15.10;91.10;;;;;;5024516;28;20234;-69
2022/10/28 05:05:47;;;;;;;12.33;6.47;;;15.10;90.90;;;;;;5031384;28;20200;-69
2022/10/28 05:08:12;;;;;;;16.77;6.40;;;15.20;90.50;;;;;;5031505;28;20315;-70
2022/10/28 05:10:38;;;;;;;13.20;7.00;;;15.20;90.60;;;;;;5025522;28;20542;-71
2022/10/28 05:13:04;;;;;;;15.20;7.50;;;15.30;90.60;;;;;;5031697;28;21043;-68
2022/10/28 05:15:30;;;;;;;14.50;7.80;;;15.20;90.70;;;;;;5031962;28;20195;-69
2022/10/28 05:17:55;;;;;;;15.90;7.10;;;15.10;91.20;;;;;;5031235;28;20208;-70
2022/10/28 05:20:21;;;;;;;11.23;6.80;;;15.10;91.30;;;;;;5028673;28;20816;-68
2022/10/28 05:22:49;;;;;;;21.10;8.60;;;15.20;91.20;;;;;;5031778;28;20529;-70
2022/10/28 05:25:15;;;;;;;14.50;6.90;;;15.20;91.10;;;;;;5029813;28;20428;-69
2022/10/28 05:27:41;;;;;;;15.87;7.03;;;15.10;91.20;;;;;;5031043;28;20437;-69
2022/10/28 05:30:07;;;;;;;20.40;8.60;;;15.10;91.20;;;;;;5028845;28;20467;-70
2022/10/28 05:32:33;;;;;;;16.30;7.60;;;14.90;91.20;;;;;;5028085;28;20193;-69
2022/10/28 05:34:59;;;;;;;16.80;7.80;;;14.70;91.40;;;;;;5029524;28;20429;-70
2022/10/28 05:37:24;;;;;;;14.67;6.53;;;14.60;91.60;;;;;;5028280;28;20235;-68
2022/10/28 05:39:50;;;;;;;17.30;7.43;;;14.60;91.70;;;;;;5027243;28;20209;-71
2022/10/28 05:42:15;;;;;;;18.07;7.13;;;14.60;91.70;;;;;;5027787;28;20198;-69
2022/10/28 05:44:41;;;;;;;14.50;7.27;;;14.70;91.80;;;;;;5029795;28;20241;-70
2022/10/28 05:47:07;;;;;;;14.30;6.60;;;14.80;91.80;;;;;;5026820;28;20180;-73
2022/10/28 05:49:32;;;;;;;12.43;7.07;;;14.70;92.00;;;;;;5028794;28;20205;-69
2022/10/28 05:51:58;;;;;;;18.03;7.10;;;14.70;92.00;;;;;;5024652;28;20268;-69
2022/10/28 05:54:24;;;;;;;18.43;8.70;;;14.70;92.00;;;;;;5031327;28;20553;-71
2022/10/28 05:56:49;;;;;;;19.77;8.77;;;14.60;92.20;;;;;;5030129;28;20843;-71
2022/10/28 05:59:15;;;;;;;29.10;8.40;;;14.60;92.40;;;;;;5028956;28;20715;-71
2022/10/28 06:01:40;;;;;;;15.87;6.97;;;14.60;92.60;;;;;;5026135;28;20185;-70
2022/10/28 06:04:06;;;;;;;13.70;6.53;;;14.70;92.70;;;;;;5026367;28;20210;-71
2022/10/28 06:06:32;;;;;;;12.83;7.73;;;14.80;92.70;;;;;;5029426;28;20287;-70
2022/10/28 06:08:57;;;;;;;13.63;7.50;;;14.70;92.60;;;;;;5025209;28;20215;-71
2022/10/28 06:11:23;;;;;;;15.30;6.80;;;14.80;92.70;;;;;;5027993;28;20224;-71
2022/10/28 06:13:48;;;;;;;16.40;7.67;;;14.80;92.70;;;;;;5027805;28;20202;-71
2022/10/28 06:16:14;;;;;;;12.37;7.33;;;14.80;92.70;;;;;;5036548;28;20189;-70
2022/10/28 06:18:40;;;;;;;17.83;6.90;;;14.80;92.70;;;;;;5039592;28;20228;-71
2022/10/28 06:21:05;;;;;;;14.53;6.63;;;14.90;92.70;;;;;;5040242;28;20202;-71
2022/10/28 06:23:31;;;;;;;10.83;5.50;;;14.90;92.60;;;;;;5040129;28;20213;-72
2022/10/28 06:25:58;;;;;;;12.17;6.40;;;14.90;92.50;;;;;;5026457;28;20182;-71
2022/10/28 06:28:24;;;;;;;18.40;6.83;;;14.90;92.40;;;;;;5029922;28;20277;-72
2022/10/28 06:30:50;;;;;;;14.13;6.57;;;14.90;92.30;;;;;;5027156;28;20539;-72
2022/10/28 06:33:15;;;;;;;10.83;6.30;;;14.90;92.30;;;;;;5033574;28;20192;-73
2022/10/28 06:35:41;;;;;;;16.30;6.97;;;15.00;92.30;;;;;;5032727;28;20287;-72
2022/10/28 06:38:06;;;;;;;13.13;8.17;;;15.00;92.10;;;;;;5026462;28;20217;-71
2022/10/28 06:40:32;;;;;;;12.23;7.27;;;15.00;92.00;;;;;;5024628;28;20232;-72
2022/10/28 06:42:59;;;;;;;17.43;7.20;;;15.00;91.90;;;;;;5029183;28;20632;-70
2022/10/28 06:45:25;;;;;;;10.80;6.40;;;15.10;91.80;;;;;;5030260;28;20216;-70
2022/10/28 06:47:55;;;;;;;17.90;8.50;;;15.20;91.50;;;;;;5028493;28;21375;-71
2022/10/28 06:50:21;;;;;;;17.80;8.30;;;15.20;91.30;;;;;;5025804;28;20490;-69
2022/10/28 06:52:46;;;;;;;19.10;7.40;;;15.20;91.20;;;;;;5023232;28;20434;-70
2022/10/28 06:55:12;;;;;;;17.70;8.40;;;15.30;91.20;;;;;;5029935;28;20651;-69
2022/10/28 06:57:37;;;;;;;20.30;9.13;;;15.30;91.10;;;;;;5029089;28;20577;-70
2022/10/28 07:00:04;;;;;;;26.93;9.50;;;15.20;90.90;;;;;;5025514;28;20590;-71
2022/10/28 07:02:29;;;;;;;25.30;9.50;;;15.20;91.00;;;;;;5028592;28;20186;-70
2022/10/28 07:04:55;;;;;;;19.30;8.67;;;15.10;91.00;;;;;;5028219;28;20438;-70
2022/10/28 07:07:20;;;;;;;31.20;9.13;;;15.10;91.00;;;;;;5029070;28;20203;-69
2022/10/28 07:09:46;;;;;;;25.73;9.13;;;15.10;90.90;;;;;;5026825;28;20219;-71
2022/10/28 07:12:12;;;;;;;20.27;9.00;;;15.10;90.70;;;;;;5028702;28;20546;-70
2022/10/28 07:14:37;;;;;;;29.00;10.57;;;15.10;90.70;;;;;;5029541;28;20185;-69
2022/10/28 07:17:03;;;;;;;28.13;9.27;;;15.10;90.70;;;;;;5029016;28;20719;-69
2022/10/28 07:19:28;;;;;;;26.37;8.43;;;15.10;90.10;;;;;;5025664;28;20272;-69
2022/10/28 07:21:54;;;;;;;27.93;9.27;;;15.20;90.30;;;;;;5025032;28;20277;-70
2022/10/28 07:24:19;;;;;;;27.77;9.13;;;15.20;90.10;;;;;;5029602;28;20199;-70
2022/10/28 07:26:48;;;;;;;27.10;8.93;;;15.20;89.90;;;;;;5029579;28;20177;-70
2022/10/28 07:29:14;;;;;;;24.00;9.73;;;15.30;89.90;;;;;;5027699;28;20216;-69
2022/10/28 07:31:40;;;;;;;29.70;9.53;;;15.30;89.60;;;;;;5029326;28;20462;-70
2022/10/28 07:34:05;;;;;;;18.10;8.50;;;15.40;89.60;;;;;;5029539;28;20447;-69
2022/10/28 07:36:31;;;;;;;22.13;8.70;;;15.50;89.50;;;;;;5029200;28;20204;-70
2022/10/28 07:38:57;;;;;;;23.43;6.90;;;15.60;89.00;;;;;;5025719;28;20698;-69
2022/10/28 07:41:22;;;;;;;42.30;9.83;;;15.60;88.40;;;;;;5028394;28;20189;-70
2022/10/28 07:43:48;;;;;;;23.27;9.67;;;15.70;88.40;;;;;;5029258;28;20191;-69
2022/10/28 07:46:15;;;;;;;19.60;8.37;;;15.80;88.40;;;;;;5030679;28;20181;-69
2022/10/28 07:48:41;;;;;;;24.20;8.03;;;15.80;88.60;;;;;;5029138;28;20604;-70
2022/10/28 07:51:09;;;;;;;25.70;8.83;;;15.90;88.60;;;;;;5029853;28;20461;-70
2022/10/28 07:53:34;;;;;;;25.67;9.80;;;15.90;88.00;;;;;;5034494;28;20187;-70
2022/10/28 07:56:03;;;;;;;22.20;8.30;;;16.00;87.70;;;;;;5033474;28;20530;-71
2022/10/28 07:58:28;;;;;;;30.47;8.70;;;16.10;87.10;;;;;;5031784;28;20212;-70
2022/10/28 08:00:54;;;;;;;29.90;9.63;;;16.30;87.40;;;;;;5025326;28;20481;-70
2022/10/28 08:03:20;;;;;;;23.90;8.33;;;16.40;86.50;;;;;;5028809;28;20296;-70
2022/10/28 08:05:46;;;;;;;37.17;8.60;;;16.60;84.90;;;;;;5027428;28;20200;-70
2022/10/28 08:08:12;;;;;;;21.20;8.47;;;16.60;85.20;;;;;;5028677;28;20431;-70
2022/10/28 08:10:38;;;;;;;25.87;8.67;;;16.70;84.40;;;;;;5025065;28;20784;-70
2022/10/28 08:13:05;;;;;;;23.37;9.43;;;16.80;84.60;;;;;;5028430;28;20443;-68
2022/10/28 08:15:30;;;;;;;26.27;9.60;;;16.90;84.60;;;;;;5030807;28;20420;-69
2022/10/28 08:17:56;;;;;;;21.20;7.67;;;16.90;84.40;;;;;;5032459;28;20482;-70
2022/10/28 08:20:22;;;;;;;17.87;8.03;;;17.00;84.70;;;;;;5030160;28;20206;-68
2022/10/28 08:22:48;;;;;;;31.73;9.37;;;17.00;84.40;;;;;;5032271;28;20264;-69
2022/10/28 08:25:13;;;;;;;22.23;8.77;;;17.10;84.30;;;;;;5032880;28;20499;-69
2022/10/28 08:27:41;;;;;;;24.33;9.00;;;17.00;84.10;;;;;;5035869;28;20184;-70
2022/10/28 08:30:07;;;;;;;24.07;8.40;;;17.10;83.80;;;;;;5034910;28;20216;-71
2022/10/28 08:32:33;;;;;;;30.77;9.57;;;17.20;84.00;;;;;;5035531;28;20429;-70
2022/10/28 08:34:59;;;;;;;20.17;9.27;;;17.30;83.70;;;;;;5037354;28;20422;-69
2022/10/28 08:37:25;;;;;;;32.00;8.40;;;17.40;83.40;;;;;;5036372;28;20427;-71
2022/10/28 08:39:50;;;;;;;20.47;9.30;;;17.60;83.30;;;;;;5029319;28;20237;-70
2022/10/28 08:42:31;;;;;;;25.20;9.10;;;17.60;82.80;;;;;;5035735;28;20209;-70
2022/10/28 08:45:34;;;;;;;21.33;8.80;;;17.70;82.50;;;;;;5034870;28;20181;-71
2022/10/28 08:48:20;;;;;;;21.23;8.77;;;17.70;81.70;;;;;;5031396;28;20419;-69
2022/10/28 08:50:51;;;;;;;25.40;9.63;;;17.80;82.10;;;;;;5024168;28;20972;-69
2022/10/28 08:53:22;;;;;;;17.90;8.10;;;17.80;81.40;;;;;;5032383;28;20417;-69
2022/10/28 08:55:50;;;;;;;24.43;8.47;;;17.90;81.70;;;;;;5028970;28;20675;-71
2022/10/28 08:58:24;;;;;;;29.17;9.50;;;18.10;81.70;;;;;;5031009;28;20470;-71
2022/10/28 09:00:54;;;;;;;25.67;10.77;;;18.20;81.20;;;;;;5023582;28;21208;-70
2022/10/28 09:03:25;;;;;;;35.77;10.77;;;18.20;80.20;;;;;;5033292;28;20416;-69
2022/10/28 09:06:04;;;;;;;26.13;9.40;;;17.90;79.70;;;;;;5034205;28;20420;-70
2022/10/28 09:08:56;;;;;;;20.60;8.80;;;17.50;81.40;;;;;;5028870;28;20508;-70
2022/10/28 09:11:51;;;;;;;28.00;9.73;;;17.40;82.10;;;;;;5032401;28;20517;-70
2022/10/28 09:14:47;;;;;;;31.93;10.50;;;17.30;82.40;;;;;;4979681;28;20611;-70
2022/10/28 09:17:19;;;;;;;28.13;8.67;;;17.40;82.50;;;;;;4985027;28;20497;-69
2022/10/28 09:19:49;;;;;;;20.40;8.47;;;17.40;82.10;;;;;;4989719;28;20510;-71
2022/10/28 09:22:31;;;;;;;22.60;7.53;;;17.40;82.50;;;;;;4989288;28;20669;-70
2022/10/28 09:25:03;;;;;;;13.30;7.60;;;17.10;82.40;;;;;;4966382;28;20425;-70
2022/10/28 09:27:53;;;;;;;18.53;6.80;;;17.00;83.10;;;;;;4989164;28;20824;-69
2022/10/28 09:30:31;;;;;;;21.63;7.43;;;17.10;83.40;;;;;;4988014;28;20835;-71
2022/10/28 09:33:20;;;;;;;17.93;8.17;;;17.40;83.00;;;;;;4988903;28;20432;-70
2022/10/28 09:35:47;;;;;;;18.83;8.60;;;17.60;82.40;;;;;;4989305;28;20868;-69
2022/10/28 09:38:26;;;;;;;24.67;8.43;;;17.80;81.50;;;;;;4988873;28;20477;-70
2022/10/28 09:41:09;;;;;;;18.20;6.80;;;17.90;80.80;;;;;;4985616;28;20445;-70
2022/10/28 09:43:41;;;;;;;20.87;7.90;;;18.00;78.70;;;;;;4985738;28;20449;-70
2022/10/28 09:46:12;;;;;;;21.97;7.13;;;18.00;80.00;;;;;;4986100;28;20423;-70
2022/10/28 09:48:42;;;;;;;11.30;6.73;;;18.10;78.90;;;;;;4971401;28;20518;-68
2022/10/28 09:51:25;;;;;;;13.97;7.10;;;18.20;78.10;;;;;;5014559;28;20440;-69
2022/10/28 09:53:57;;;;;;;17.07;6.63;;;18.40;77.80;;;;;;5030834;28;20461;-69
2022/10/28 09:56:24;;;;;;;20.10;7.33;;;18.60;77.00;;;;;;5030308;28;20430;-70
2022/10/28 09:58:52;;;;;;;18.33;9.43;;;18.70;76.20;;;;;;5023892;28;20535;-70
2022/10/28 10:01:18;;;;;;;19.80;8.00;;;18.80;75.50;;;;;;5027045;28;20440;-70
2022/10/28 10:03:46;;;;;;;14.50;6.53;;;18.80;75.50;;;;;;5030206;28;20425;-70
2022/10/28 10:06:16;;;;;;;14.97;6.97;;;19.10;75.20;;;;;;5030228;28;20430;-69
2022/10/28 10:08:43;;;;;;;18.67;7.00;;;19.30;73.90;;;;;;5028312;28;20440;-69
2022/10/28 10:11:48;;;;;;;16.50;7.27;;;19.60;73.50;;;;;;5026987;28;20482;-72
2022/10/28 10:14:23;;;;;;;15.03;6.20;;;19.80;73.20;;;;;;4931091;29;20821;-70
2022/10/28 10:16:56;;;;;;;13.10;7.20;;;20.10;72.90;;;;;;4931006;29;20437;-70
2022/10/28 10:19:21;;;;;;;13.40;5.93;;;20.40;72.00;;;;;;4929602;29;20487;-69
2022/10/28 10:21:49;;;;;;;16.27;7.20;;;20.50;68.60;;;;;;4930598;29;20438;-71
2022/10/28 10:24:31;;;;;;;19.23;7.37;;;20.70;69.80;;;;;;4931082;29;20571;-68
2022/10/28 10:27:00;;;;;;;15.30;7.07;;;20.80;68.50;;;;;;4930752;29;20437;-69
2022/10/28 10:29:27;;;;;;;20.33;7.70;;;21.00;69.70;;;;;;4929899;29;20554;-70
2022/10/28 10:32:14;;;;;;;19.07;7.80;;;20.90;69.10;;;;;;4930162;29;20441;-69
2022/10/28 10:34:44;;;;;;;17.77;7.20;;;20.90;69.70;;;;;;4930520;29;20433;-70
2022/10/28 10:37:19;;;;;;;17.80;6.40;;;20.90;70.10;;;;;;4930355;29;20775;-71
2022/10/28 10:39:44;;;;;;;18.73;6.43;;;20.90;69.80;;;;;;4928737;29;20492;-71
2022/10/28 10:42:20;;;;;;;18.00;7.60;;;20.90;68.50;;;;;;4929910;29;20523;-70
2022/10/28 10:44:58;;;;;;;19.30;7.37;;;20.80;69.10;;;;;;4930258;29;20201;-71
2022/10/28 10:47:24;;;;;;;17.20;6.73;;;20.80;69.20;;;;;;4927278;29;20429;-70
2022/10/28 10:49:50;;;;;;;16.67;7.20;;;20.70;69.90;;;;;;4946511;28;20456;-69
2022/10/28 10:52:22;;;;;;;15.40;7.50;;;20.60;70.50;;;;;;5029700;28;20183;-69
2022/10/28 10:54:58;;;;;;;18.73;6.50;;;20.30;71.10;;;;;;5028756;28;20436;-70
2022/10/28 10:57:25;;;;;;;11.73;7.20;;;20.30;71.80;;;;;;5029278;28;20460;-70
2022/10/28 10:59:53;;;;;;;16.20;7.10;;;20.40;71.00;;;;;;5023759;28;20465;-70
2022/10/28 11:02:33;;;;;;;12.43;6.57;;;20.50;71.60;;;;;;5029538;28;20482;-70
2022/10/28 11:05:02;;;;;;;17.13;6.50;;;20.60;71.60;;;;;;5029246;28;20429;-70
2022/10/28 11:07:28;;;;;;;12.17;6.03;;;20.70;71.30;;;;;;5030629;28;20918;-69
2022/10/28 11:09:54;;;;;;;15.70;6.30;;;20.80;71.10;;;;;;5024282;28;20544;-69
2022/10/28 11:12:28;;;;;;;16.80;7.17;;;20.90;70.40;;;;;;5027308;28;20558;-70
2022/10/28 11:14:56;;;;;;;19.93;6.40;;;21.20;70.40;;;;;;5028501;28;20434;-70
2022/10/28 11:17:33;;;;;;;9.87;5.67;;;21.20;69.20;;;;;;5026968;28;20420;-71
2022/10/28 11:20:17;;;;;;;12.50;6.73;;;21.30;69.40;;;;;;5025835;28;20462;-72
2022/10/28 11:23:01;;;;;;;20.10;6.90;;;21.50;69.10;;;;;;5025479;28;20477;-69
2022/10/28 11:25:39;;;;;;;19.37;6.97;;;21.50;68.50;;;;;;5029084;28;20431;-70
2022/10/28 11:28:04;;;;;;;21.93;6.90;;;21.50;68.30;;;;;;5024629;28;20428;-69
2022/10/28 11:31:09;;;;;;;14.43;5.57;;;21.50;68.00;;;;;;5026962;28;20548;-70
2022/10/28 11:34:02;;;;;;;13.30;7.00;;;21.80;69.10;;;;;;5027704;28;20583;-68
2022/10/28 11:36:40;;;;;;;13.30;6.00;;;21.90;68.50;;;;;;5030323;28;20428;-72
2022/10/28 11:39:06;;;;;;;17.80;6.60;;;21.90;68.80;;;;;;5024789;28;20531;-70
2022/10/28 11:42:02;;;;;;;12.00;5.03;;;21.90;68.50;;;;;;5031207;28;20462;-70
2022/10/28 11:44:51;;;;;;;14.40;6.93;;;21.90;68.30;;;;;;5025823;28;20215;-69
2022/10/28 11:47:39;;;;;;;13.43;6.60;;;21.70;68.60;;;;;;5031864;28;20926;-70
2022/10/28 11:50:40;;;;;;;18.33;7.87;;;21.50;69.90;;;;;;5028759;28;20476;-69
2022/10/28 11:53:25;;;;;;;16.90;7.00;;;21.00;71.40;;;;;;5037292;28;20446;-69
2022/10/28 11:56:14;;;;;;;16.87;7.27;;;20.80;72.10;;;;;;5045127;28;20436;-69
2022/10/28 11:58:42;;;;;;;10.30;5.53;;;20.90;72.10;;;;;;5035792;28;20601;-69
2022/10/28 12:01:19;;;;;;;11.40;4.13;;;21.10;69.70;;;;;;5031417;28;20500;-71
2022/10/28 12:04:16;;;;;;;10.67;4.43;;;21.30;67.50;;;;;;5033717;28;20411;-70
2022/10/28 12:07:23;;;;;;;19.80;6.50;;;21.60;66.60;;;;;;5028550;28;20430;-70
2022/10/28 12:10:14;;;;;;;17.40;5.97;;;21.80;67.50;;;;;;5027072;28;20855;-70
2022/10/28 12:13:01;;;;;;;24.27;7.40;;;21.60;69.10;;;;;;5027142;28;20439;-70
2022/10/28 12:16:04;;;;;;;16.37;6.60;;;21.50;69.80;;;;;;5019417;28;20442;-71
2022/10/28 12:19:12;;;;;;;12.30;5.63;;;21.50;70.20;;;;;;5031585;28;20583;-69
2022/10/28 12:21:42;;;;;;;10.10;5.40;;;21.70;69.80;;;;;;5019689;28;20430;-70
2022/10/28 12:24:18;;;;;;;11.77;5.50;;;21.60;69.50;;;;;;5032556;28;20437;-69
2022/10/28 12:26:53;;;;;;;15.60;5.60;;;22.00;69.90;;;;;;5032606;28;20613;-69
2022/10/28 12:29:24;;;;;;;24.03;8.40;;;22.50;68.20;;;;;;5030600;28;20463;-70
2022/10/28 12:31:59;;;;;;;15.47;5.60;;;22.90;67.20;;;;;;5031854;28;20434;-70
2022/10/28 12:34:43;;;;;;;14.80;6.40;;;23.20;65.40;;;;;;5032434;28;20425;-69
2022/10/28 12:37:37;;;;;;;12.37;5.63;;;23.20;64.70;;;;;;5032365;28;20475;-71
2022/10/28 12:40:20;;;;;;;16.97;6.50;;;23.00;66.00;;;;;;5020257;28;20497;-70
2022/10/28 12:42:51;;;;;;;12.80;6.30;;;23.10;65.80;;;;;;5031622;28;20983;-69
2022/10/28 12:45:19;;;;;;;10.23;5.13;;;23.50;66.10;;;;;;5032116;28;20436;-69
2022/10/28 12:47:56;;;;;;;12.27;5.40;;;24.00;64.80;;;;;;5031293;28;20944;-70
2022/10/28 12:50:46;;;;;;;14.03;5.37;;;24.50;64.10;;;;;;5026152;28;21264;-70
2022/10/28 12:53:26;;;;;;;13.80;5.20;;;25.00;62.60;;;;;;5027040;28;20427;-69
2022/10/28 12:55:57;;;;;;;13.53;4.70;;;25.50;60.40;;;;;;5026705;28;20449;-69
2022/10/28 12:58:34;;;;;;;13.30;5.70;;;25.80;60.00;;;;;;5029257;28;20463;-69
2022/10/28 13:01:12;;;;;;;10.30;5.20;;;26.30;59.50;;;;;;5025759;28;20510;-70